Terminal Aerodrome Forecast
Issued by NWS

Home | Current Version | Previous Version | Text Only | Print | Product List | Glossary On
Versions: 1 2 3 4 5 6 7 8 9 10 11 12 13 14 15 16 17 18 19 20 21 22 23 24 25 26 27 28 29 30
646
FTUS45 KABQ 221150 CCA
TAFROW
TAF COR
KROW 221150Z 2212/2312 02009KT P6SM BKN200
     FM222100 07011KT P6SM SCT120
     FM230100 VRB20G30KT 6SM -TSRA SCT020 BKN030CB
     FM230400 02012KT 6SM -SHRA SCT020 BKN030
     FM230700 36011KT P6SM VCSH SCT010 BKN020=

USA.gov is the U.S. government's official web portal to all federal, state and local government web resources and services.